• Join FlightAware (Why Join?)
  • Login
  • US Flag 
03:25PM EST


 

Airport Tracker/Info


-or-


 

Live Flight TrackerFlight Track Log ✈ ASQ4663 ✈ 24-May-2013 ✈ KBTV - KEWR

Flight Track Log - Related Links

Times and Time Zones

All times are in EDT time to prevent confusion due to time zone crossing. See the ASQ4663 flight status page for this flight to view local times or setup timezone preferences in your user account.

Time Position Orientation Groundspeed Altitude Reporting Facility
EDT Latitude Longitude Course Direction KTS MPH feet Rate Location/Type
07:32PM 44.3836 -73.2447 196° South 297 342 9,300  Level Boston Center
07:33PM 44.1935 -73.2516 190° South  Level FlightAware Approximate
07:33PM 44.3003 -73.2144 165° South 297 342 10,000  Level Boston Center
07:34PM 44.1235 -73.2691 190° South  Level FlightAware Approximate
07:34PM 44.2047 -73.1814 166° South 328 377 10,000  Level Boston Center
07:35PM 44.0539 -73.2885 196° South  Level FlightAware Approximate
07:35PM 44.0861 -73.1683 175° South 356 410 10,300  Level Boston Center
07:36PM 43.9855 -73.3158 196° South  Level FlightAware Approximate
07:36PM 43.9942 -73.2192 202° Southwest 352 405 12,200  Level Boston Center
07:37PM 43.9172 -73.3431 196° South  Level FlightAware Approximate
07:37PM 43.9083 -73.2614 200° South 369 425 14,200  Level Boston Center
07:38PM 43.8142 -73.3119 201° Southwest 369 425 16,000 900 Climbing Boston Center
07:39PM 43.7117 -73.3592 198° South 386 444 16,000 -60 Level Boston Center
07:40PM 43.6031 -73.4119 199° South 386 444 15,900  Descending Boston Center
07:41PM 43.5044 -73.4619 200° South 386 444 16,000  Climbing Boston Center
07:42PM 43.4061 -73.5089 199° South 386 444 16,000  Level Boston Center
07:43PM 43.3056 -73.5586 200° South 385 443 16,000  Level Boston Center
07:44PM 43.2094 -73.6053 199° South 373 429 16,000  Level Boston Center
07:45PM 43.1108 -73.6489 198° South 373 429 16,000  Level Boston Center
07:46PM 43.0106 -73.6922 198° South 378 435 16,000  Level Boston Center
07:47PM 42.9100 -73.7356 198° South 384 442 16,000  Level Boston Center
07:48PM 42.8197 -73.7789 199° South 384 442 16,000  Level Boston Center
07:49PM 42.7214 -73.8219 198° South 384 442 16,000  Level Boston Center
07:50PM 42.6186 -73.8650 197° South 384 442 16,000  Level Boston Center
07:51PM 42.5075 -73.9131 198° South 384 442 16,000  Level Boston Center
07:52PM 42.4133 -73.9531 197° South 384 442 16,000  Level Boston Center
07:53PM 42.3022 -74.0036 199° South 389 448 16,000  Level Boston Center
07:54PM 42.2119 -74.0433 198° South 384 442 16,000 60 Level Boston Center
07:55PM 42.1197 -74.0858 199° South 346 398 16,200 -900 Climbing Boston Center
07:56PM 42.0419 -74.1175 197° South 300 345 14,300 -1,800 Descending Boston Center
07:57PM 41.9728 -74.1492 199° South 295 339 12,600 -1,680 Descending Boston Center
07:58PM 41.9153 -74.2228 224° Southwest 263 303 11,000 -1,260 Descending Boston Center
07:59PM 41.8994 -74.3033 255° West 263 303 10,200 -600 Descending Boston Center
08:00PM 41.8622 -74.4108 245° Southwest 271 312 9,700 -780 Descending Boston Center
08:01PM 41.7664 -74.4108 180° South 260 299 8,500 -900 Descending Boston Center
08:02PM 41.7081 -74.4061 177° South 270 311 8,000 -660 Descending Boston Center
08:03PM 41.6289 -74.4008 177° South 262 302 7,300 -540 Descending Boston Center
08:04PM 41.5622 -74.3989 179° South 244 281 7,000 -180 Descending Boston Center
08:05PM 41.4956 -74.3967 179° South 244 281 7,000  Level Boston Center
08:07PM 41.4000 -74.4500 203° Southwest 255 293 7,000  Level New York TRACON
08:08PM 41.3333 -74.4833 201° Southwest 245 282 7,000  Level New York TRACON
08:09PM 41.2833 -74.4500 153° Southeast 239 275 7,000  Level New York TRACON
08:10PM 41.2333 -74.3833 135° Southeast 236 272 7,000  Level New York TRACON
08:11PM 41.1833 -74.4167 207° Southwest 248 285 7,000  Level New York TRACON
08:12PM 41.1333 -74.4833 225° Southwest 234 269 7,000 -120 Level New York TRACON
08:13PM 41.0833 -74.5333 217° Southwest 244 281 6,800 -540 Descending New York TRACON
08:14PM 41.0167 -74.5667 201° Southwest 243 280 6,000 -420 Descending New York TRACON
08:15PM 40.9667 -74.6000 207° Southwest 242 278 6,000 -420 Level New York TRACON
08:16PM 40.8833 -74.6000 180° South 248 285 5,200 -540 Descending New York TRACON
08:17PM 40.8333 -74.6000 180° South 253 291 5,000 -120 Descending New York TRACON
08:18PM 40.7500 -74.6000 180° South 249 287 5,000  Level New York TRACON
08:19PM 40.6833 -74.6000 180° South 241 277 5,000  Level New York TRACON
08:20PM 40.6167 -74.6000 180° South 244 281 5,000 -120 Level New York TRACON
08:21PM 40.5500 -74.5833 169° South 242 278 4,800 -540 Descending New York TRACON
08:22PM 40.4833 -74.5500 159° South 251 289 4,000 -420 Descending New York TRACON
08:23PM 40.4333 -74.5167 153° Southeast 253 291 4,000 -540 Level New York TRACON
08:24PM 40.4000 -74.4333 118° Southeast 230 265 3,000 -480 Descending New York TRACON
08:25PM 40.4000 -74.3667 90° East 173 199 3,000  Level New York TRACON
08:26PM 40.4333 -74.3333 37° Northeast 157 181 3,000  Level New York TRACON
08:27PM 40.4667 -74.3167 21° North 152 175 3,000  Level New York TRACON